createdAt,value
2022-11-13T00:00:02.366Z,28.00
2022-11-13T00:00:12.366Z,28.40
2022-11-13T00:00:22.496Z,28.50
2022-11-13T00:00:32.624Z,28.50
2022-11-13T00:00:42.635Z,28.10
2022-11-13T00:00:52.635Z,28.90
2022-11-13T00:01:02.767Z,29.40
2022-11-13T00:01:12.765Z,29.60
2022-11-13T00:01:22.915Z,29.10
2022-11-13T00:01:33.029Z,29.30
2022-11-13T00:01:43.039Z,30.00
2022-11-13T00:01:53.188Z,29.30
2022-11-13T00:02:03.178Z,28.80
2022-11-13T00:02:13.205Z,28.10
2022-11-13T00:02:23.201Z,28.40
2022-11-13T00:02:33.420Z,29.20
2022-11-13T00:02:43.503Z,29.20
2022-11-13T00:02:53.511Z,28.50
2022-11-13T00:03:03.527Z,27.90
2022-11-13T00:03:13.657Z,28.60
2022-11-13T00:03:23.854Z,30.40
2022-11-13T00:03:33.816Z,30.40
2022-11-13T00:03:43.967Z,30.40
2022-11-13T00:03:53.932Z,29.40
2022-11-13T00:04:04.094Z,30.10
2022-11-13T00:04:14.076Z,29.50
2022-11-13T00:04:24.133Z,29.30
2022-11-13T00:04:34.178Z,29.20
2022-11-13T00:04:44.209Z,29.20
2022-11-13T00:04:54.265Z,29.30
2022-11-13T00:05:04.287Z,28.30
2022-11-13T00:05:14.395Z,28.80
2022-11-13T00:05:24.400Z,29.00
2022-11-13T00:05:34.547Z,30.10
2022-11-13T00:05:44.535Z,29.80
2022-11-13T00:05:54.566Z,29.30
2022-11-13T00:06:04.635Z,28.50
2022-11-13T00:06:14.733Z,27.90
2022-11-13T00:06:24.880Z,27.70
2022-11-13T00:06:34.952Z,27.60
2022-11-13T00:06:45.006Z,28.50
2022-11-13T00:06:59.154Z,28.70
2022-11-13T00:07:05.155Z,28.90
2022-11-13T00:07:15.169Z,28.90
2022-11-13T00:07:25.219Z,29.00
2022-11-13T00:07:35.285Z,29.30
2022-11-13T00:07:45.317Z,28.90
2022-11-13T00:07:55.434Z,29.30
2022-11-13T00:08:05.447Z,28.60
2022-11-13T00:08:15.492Z,28.50
2022-11-13T00:08:25.820Z,28.40
2022-11-13T00:08:35.616Z,28.90
2022-11-13T00:08:45.624Z,28.30
2022-11-13T00:08:55.759Z,28.40
2022-11-13T00:09:05.903Z,27.80
2022-11-13T00:09:16.035Z,28.30
2022-11-13T00:09:26.035Z,28.20
2022-11-13T00:09:36.184Z,28.80
2022-11-13T00:09:46.221Z,27.80
2022-11-13T00:09:56.195Z,28.10
2022-11-13T00:10:06.335Z,27.60
2022-11-13T00:10:16.341Z,27.70
2022-11-13T00:10:26.482Z,27.00
2022-11-13T00:10:36.489Z,26.80
2022-11-13T00:10:46.485Z,27.10
2022-11-13T00:10:56.524Z,27.20
2022-11-13T00:11:06.556Z,27.90
2022-11-13T00:11:16.744Z,29.00
2022-11-13T00:11:26.818Z,29.00
2022-11-13T00:11:36.816Z,29.30
2022-11-13T00:11:46.820Z,28.20
2022-11-13T00:11:56.965Z,27.40
2022-11-13T00:12:06.957Z,27.00
2022-11-13T00:12:16.930Z,27.20
2022-11-13T00:12:27.128Z,27.40
2022-11-13T00:12:37.056Z,27.70
2022-11-13T00:12:47.105Z,27.50
2022-11-13T00:12:57.145Z,27.90
2022-11-13T00:13:07.149Z,28.70
2022-11-13T00:13:17.299Z,28.90
2022-11-13T00:13:30.350Z,28.30
2022-11-13T00:13:37.263Z,27.10
2022-11-13T00:13:47.396Z,27.60
2022-11-13T00:13:57.586Z,28.60
2022-11-13T00:14:07.597Z,28.60
2022-11-13T00:14:17.733Z,27.80
2022-11-13T00:14:27.764Z,27.00
2022-11-13T00:14:37.952Z,27.30
2022-11-13T00:14:47.983Z,28.00
2022-11-13T00:14:58.024Z,29.10
2022-11-13T00:15:08.067Z,29.60
2022-11-13T00:15:18.114Z,29.40
2022-11-13T00:15:28.067Z,28.40
2022-11-13T00:15:38.065Z,28.00
2022-11-13T00:15:48.066Z,27.90
2022-11-13T00:15:58.129Z,28.10
2022-11-13T00:16:08.160Z,28.30
2022-11-13T00:16:18.154Z,27.30
2022-11-13T00:16:28.145Z,27.60
2022-11-13T00:16:38.165Z,28.20
2022-11-13T00:16:48.202Z,29.20
2022-11-13T00:16:58.178Z,29.20
2022-11-13T00:17:08.145Z,28.70
2022-11-13T00:17:18.296Z,29.70
2022-11-13T00:17:28.284Z,30.00
2022-11-13T00:17:38.298Z,30.60
2022-11-13T00:17:48.317Z,30.50
2022-11-13T00:17:58.364Z,30.00
2022-11-13T00:18:08.443Z,30.50
2022-11-13T00:18:18.427Z,30.20
2022-11-13T00:18:28.980Z,31.10
2022-11-13T00:18:38.736Z,31.10
2022-11-13T00:18:48.757Z,31.50
2022-11-13T00:18:58.735Z,31.40
2022-11-13T00:19:08.764Z,30.70
2022-11-13T00:19:18.783Z,30.30
2022-11-13T00:19:28.765Z,30.80
2022-11-13T00:19:38.925Z,31.30
2022-11-13T00:19:48.924Z,31.20
2022-11-13T00:19:59.077Z,31.50
2022-11-13T00:20:09.061Z,31.20
2022-11-13T00:20:19.075Z,30.60
2022-11-13T00:20:29.084Z,30.10
2022-11-13T00:20:39.248Z,30.20
2022-11-13T00:20:49.260Z,30.80
2022-11-13T00:20:59.253Z,30.60
2022-11-13T00:21:09.274Z,30.00
2022-11-13T00:21:19.255Z,30.10
2022-11-13T00:21:29.374Z,30.60
2022-11-13T00:21:39.402Z,30.90
2022-11-13T00:21:49.373Z,30.80
2022-11-13T00:21:59.514Z,29.40
2022-11-13T00:22:09.655Z,30.00
2022-11-13T00:22:19.692Z,30.30
2022-11-13T00:22:29.723Z,30.10
2022-11-13T00:22:39.724Z,29.90
2022-11-13T00:22:49.771Z,30.30
2022-11-13T00:22:59.823Z,30.70
2022-11-13T00:23:09.974Z,30.80
2022-11-13T00:23:20.012Z,30.60
2022-11-13T00:23:30.199Z,31.10
2022-11-13T00:23:40.214Z,31.30
2022-11-13T00:23:50.271Z,31.20
2022-11-13T00:24:00.264Z,31.20
2022-11-13T00:24:10.390Z,30.70
2022-11-13T00:24:20.421Z,31.10
2022-11-13T00:24:30.582Z,30.40
2022-11-13T00:24:40.542Z,29.80
2022-11-13T00:24:50.554Z,29.40
2022-11-13T00:25:00.738Z,29.80
2022-11-13T00:25:10.734Z,30.60
2022-11-13T00:25:20.718Z,30.20
2022-11-13T00:25:30.732Z,30.60
2022-11-13T00:25:40.751Z,31.40
2022-11-13T00:25:50.904Z,31.40
2022-11-13T00:26:00.893Z,30.90
2022-11-13T00:26:11.022Z,28.70
2022-11-13T00:26:21.013Z,28.50
2022-11-13T00:26:31.046Z,28.70
2022-11-13T00:26:41.034Z,30.20
2022-11-13T00:26:51.074Z,30.60
2022-11-13T00:27:01.093Z,30.00
2022-11-13T00:27:11.245Z,29.80
2022-11-13T00:27:21.244Z,30.10
2022-11-13T00:27:31.263Z,30.80
2022-11-13T00:27:41.233Z,30.80
2022-11-13T00:27:51.238Z,31.10
2022-11-13T00:28:01.268Z,29.90
2022-11-13T00:28:11.249Z,29.10
2022-11-13T00:28:21.204Z,28.10
2022-11-13T00:28:31.424Z,28.20
2022-11-13T00:28:41.291Z,27.60
2022-11-13T00:28:51.299Z,28.10
2022-11-13T00:29:01.330Z,27.90
2022-11-13T00:29:11.294Z,28.50
2022-11-13T00:29:21.287Z,28.10
2022-11-13T00:29:31.437Z,28.70
2022-11-13T00:29:41.634Z,28.90
2022-11-13T00:29:51.666Z,28.60
2022-11-13T00:30:01.695Z,28.20
2022-11-13T00:30:16.361Z,28.60
2022-11-13T00:30:22.703Z,28.20
2022-11-13T00:30:32.682Z,28.70
2022-11-13T00:30:42.831Z,28.10
2022-11-13T00:30:52.853Z,28.30
2022-11-13T00:31:02.913Z,27.70
2022-11-13T00:31:13.022Z,27.70
2022-11-13T00:31:23.012Z,27.90
2022-11-13T00:31:33.011Z,27.90
2022-11-13T00:31:43.031Z,28.00
2022-11-13T00:31:53.072Z,28.30
2022-11-13T00:32:03.115Z,28.60
2022-11-13T00:32:13.095Z,28.70
2022-11-13T00:32:23.254Z,28.30
2022-11-13T00:32:33.225Z,27.60
2022-11-13T00:32:43.294Z,27.00
2022-11-13T00:32:53.379Z,26.70
2022-11-13T00:33:03.376Z,27.20
2022-11-13T00:33:16.320Z,27.10
2022-11-13T00:33:45.509Z,26.30
2022-11-13T00:34:09.192Z,27.80
2022-11-13T00:34:45.722Z,27.70
2022-11-13T00:34:47.543Z,27.80
2022-11-13T00:34:52.102Z,28.60
2022-11-13T00:35:02.104Z,28.80
2022-11-13T00:35:12.162Z,28.60
2022-11-13T00:35:22.184Z,27.90
2022-11-13T00:35:32.225Z,28.20
2022-11-13T00:35:42.292Z,29.10
2022-11-13T00:35:52.411Z,29.00
2022-11-13T00:36:02.382Z,29.20
2022-11-13T00:36:12.421Z,28.90
2022-11-13T00:36:25.942Z,28.90
2022-11-13T00:36:32.516Z,28.20
2022-11-13T00:36:42.545Z,27.30
2022-11-13T00:36:52.512Z,27.30
2022-11-13T00:37:02.502Z,26.80
2022-11-13T00:37:12.522Z,26.90
2022-11-13T00:37:22.689Z,26.30
2022-11-13T00:37:32.714Z,26.90
2022-11-13T00:37:42.763Z,27.10
2022-11-13T00:37:52.743Z,27.70
2022-11-13T00:38:02.745Z,27.90
2022-11-13T00:38:12.763Z,27.70
2022-11-13T00:38:22.792Z,28.00
2022-11-13T00:38:32.812Z,28.40
2022-11-13T00:38:42.920Z,28.00
2022-11-13T00:38:52.995Z,27.50
2022-11-13T00:39:03.052Z,26.50
2022-11-13T00:39:13.053Z,26.70
2022-11-13T00:39:23.060Z,26.30
2022-11-13T00:39:33.235Z,26.00
2022-11-13T00:39:43.173Z,26.50
2022-11-13T00:39:58.440Z,27.20
2022-11-13T00:40:04.152Z,27.20
2022-11-13T00:40:14.184Z,28.00
2022-11-13T00:40:24.171Z,27.20
2022-11-13T00:40:34.222Z,27.40
2022-11-13T00:40:44.381Z,26.90
2022-11-13T00:40:54.392Z,27.60
2022-11-13T00:41:04.509Z,27.30
2022-11-13T00:41:14.463Z,27.30
2022-11-13T00:41:24.617Z,27.60
2022-11-13T00:41:34.594Z,27.10
2022-11-13T00:41:44.677Z,26.30
2022-11-13T00:41:54.681Z,25.00
2022-11-13T00:42:04.723Z,25.30
2022-11-13T00:42:14.688Z,25.80
2022-11-13T00:42:24.831Z,26.40
2022-11-13T00:42:34.960Z,26.20
2022-11-13T00:42:44.983Z,26.60
2022-11-13T00:42:54.956Z,26.10
2022-11-13T00:43:04.984Z,26.30
2022-11-13T00:43:14.961Z,25.90
2022-11-13T00:43:25.123Z,26.40
2022-11-13T00:43:35.153Z,26.80
2022-11-13T00:43:45.228Z,26.90
2022-11-13T00:43:55.230Z,27.00
2022-11-13T00:44:05.183Z,26.90
2022-11-13T00:44:15.318Z,27.10
2022-11-13T00:44:25.465Z,26.50
2022-11-13T00:44:35.463Z,25.70
2022-11-13T00:44:45.647Z,24.90
2022-11-13T00:44:55.632Z,24.50
2022-11-13T00:45:05.764Z,25.30
2022-11-13T00:45:15.933Z,25.60
2022-11-13T00:45:25.951Z,26.40
2022-11-13T00:45:35.941Z,26.80
2022-11-13T00:45:45.932Z,26.80
2022-11-13T00:45:55.960Z,25.50
2022-11-13T00:46:05.932Z,25.00
2022-11-13T00:46:16.101Z,25.50
2022-11-13T00:46:26.140Z,26.70
2022-11-13T00:46:36.318Z,26.10
2022-11-13T00:46:46.391Z,25.40
2022-11-13T00:46:56.338Z,24.70
2022-11-13T00:47:06.331Z,25.40
2022-11-13T00:47:16.482Z,25.00
2022-11-13T00:47:26.629Z,25.40
2022-11-13T00:47:36.776Z,25.00
2022-11-13T00:47:46.779Z,25.30
2022-11-13T00:47:56.761Z,24.30
2022-11-13T00:48:06.893Z,24.70
2022-11-13T00:48:16.958Z,24.70
2022-11-13T00:48:27.214Z,25.00
2022-11-13T00:48:37.075Z,24.40
2022-11-13T00:48:47.046Z,24.60
2022-11-13T00:48:57.095Z,24.70
2022-11-13T00:49:07.161Z,24.90
2022-11-13T00:49:17.344Z,24.50
2022-11-13T00:49:27.371Z,24.20
2022-11-13T00:49:37.461Z,24.80
2022-11-13T00:49:47.449Z,24.80
2022-11-13T00:49:57.432Z,25.60
2022-11-13T00:50:07.413Z,25.30
2022-11-13T00:50:17.642Z,26.10
2022-11-13T00:50:27.674Z,25.80
2022-11-13T00:50:37.629Z,25.40
2022-11-13T00:50:47.610Z,23.90
2022-11-13T00:50:57.627Z,23.30
2022-11-13T00:51:07.784Z,23.60
2022-11-13T00:51:17.756Z,24.00
2022-11-13T00:51:27.739Z,24.40
2022-11-13T00:51:37.729Z,24.10
2022-11-13T00:51:47.745Z,25.00
2022-11-13T00:51:57.784Z,24.50
2022-11-13T00:52:07.794Z,25.30
2022-11-13T00:52:17.793Z,24.90
2022-11-13T00:52:27.790Z,24.80
2022-11-13T00:52:37.942Z,23.80
2022-11-13T00:52:47.951Z,23.80
2022-11-13T00:52:58.005Z,23.50
2022-11-13T00:53:08.082Z,23.90
2022-11-13T00:53:18.445Z,23.80
2022-11-13T00:53:28.210Z,24.30
2022-11-13T00:53:38.251Z,24.50
2022-11-13T00:53:48.409Z,24.50
2022-11-13T00:53:58.422Z,25.10
2022-11-13T00:54:08.441Z,25.90
2022-11-13T00:54:18.442Z,26.00
2022-11-13T00:54:28.561Z,26.20
2022-11-13T00:54:38.600Z,26.00
2022-11-13T00:54:48.720Z,25.70
2022-11-13T00:54:58.820Z,25.20
2022-11-13T00:55:08.787Z,24.60
2022-11-13T00:55:18.937Z,24.60
2022-11-13T00:55:28.968Z,24.50
2022-11-13T00:55:38.981Z,25.10
2022-11-13T00:55:49.068Z,25.20
2022-11-13T00:55:59.075Z,24.50
2022-11-13T00:56:09.234Z,23.20
2022-11-13T00:56:19.349Z,23.60
2022-11-13T00:56:29.340Z,24.10
2022-11-13T00:56:39.396Z,24.40
2022-11-13T00:56:49.412Z,24.00
2022-11-13T00:56:59.381Z,24.30
2022-11-13T00:57:09.370Z,24.30
2022-11-13T00:57:19.408Z,24.00
2022-11-13T00:57:29.583Z,24.10
2022-11-13T00:57:39.556Z,23.50
2022-11-13T00:57:49.600Z,24.20
2022-11-13T00:57:59.599Z,23.70
2022-11-13T00:58:09.650Z,24.60
2022-11-13T00:58:19.809Z,24.10
2022-11-13T00:58:30.202Z,24.90
2022-11-13T00:58:39.924Z,24.50
2022-11-13T00:58:49.920Z,25.10
2022-11-13T00:58:59.936Z,24.30
2022-11-13T00:59:10.059Z,24.80
2022-11-13T00:59:20.141Z,24.00
2022-11-13T00:59:30.259Z,23.50
2022-11-13T00:59:40.292Z,23.40
2022-11-13T00:59:50.301Z,23.70
2022-11-13T01:00:00.272Z,24.50
2022-11-13T01:00:10.264Z,24.00
2022-11-13T01:00:20.397Z,24.70
2022-11-13T01:00:30.440Z,24.10
2022-11-13T01:00:40.418Z,23.90
2022-11-13T01:00:50.410Z,22.90
2022-11-13T01:01:00.422Z,23.30
2022-11-13T01:01:10.539Z,23.80
2022-11-13T01:01:20.629Z,24.40
2022-11-13T01:01:30.678Z,25.00
2022-11-13T01:01:40.700Z,24.60
2022-11-13T01:01:50.737Z,25.20
2022-11-13T01:02:00.779Z,25.00
2022-11-13T01:02:10.839Z,25.90
2022-11-13T01:02:20.848Z,25.20
2022-11-13T01:02:30.829Z,25.10
2022-11-13T01:02:40.810Z,25.00
2022-11-13T01:02:50.844Z,25.00
2022-11-13T01:03:00.852Z,24.60
2022-11-13T01:03:10.986Z,23.50
2022-11-13T01:03:21.009Z,23.50
2022-11-13T01:03:30.999Z,23.60
2022-11-13T01:03:41.129Z,24.40
2022-11-13T01:03:51.160Z,24.10
2022-11-13T01:04:01.214Z,24.30
2022-11-13T01:04:11.366Z,23.90
2022-11-13T01:04:21.348Z,24.50
2022-11-13T01:04:31.368Z,23.70
2022-11-13T01:04:41.520Z,24.60
2022-11-13T01:04:51.591Z,24.60
2022-11-13T01:05:01.532Z,25.10
2022-11-13T01:05:11.528Z,24.20
2022-11-13T01:05:21.642Z,23.90
2022-11-13T01:05:31.698Z,23.50
2022-11-13T01:05:41.897Z,24.00
2022-11-13T01:05:51.899Z,24.10
2022-11-13T01:06:01.872Z,24.40
2022-11-13T01:06:12.031Z,24.10
2022-11-13T01:06:22.165Z,24.00
2022-11-13T01:06:32.179Z,23.40
2022-11-13T01:06:42.257Z,23.90
2022-11-13T01:06:52.325Z,24.30
2022-11-13T01:07:02.367Z,25.50
2022-11-13T01:07:12.435Z,25.70
2022-11-13T01:07:22.512Z,25.30
2022-11-13T01:07:32.521Z,24.10
2022-11-13T01:07:42.524Z,22.70
2022-11-13T01:07:52.671Z,22.50
2022-11-13T01:08:02.686Z,23.20
2022-11-13T01:08:12.649Z,24.00
2022-11-13T01:08:22.691Z,24.20
2022-11-13T01:08:32.729Z,24.50
2022-11-13T01:08:42.828Z,23.90
2022-11-13T01:08:52.810Z,23.70
2022-11-13T01:09:02.818Z,23.30
2022-11-13T01:09:12.972Z,23.50
2022-11-13T01:09:23.047Z,23.00
2022-11-13T01:09:33.087Z,22.50
2022-11-13T01:09:43.277Z,22.90
2022-11-13T01:09:53.276Z,23.00
2022-11-13T01:10:03.410Z,23.80
2022-11-13T01:10:13.530Z,23.70
2022-11-13T01:10:23.529Z,24.20
2022-11-13T01:10:33.736Z,23.40
2022-11-13T01:10:44.833Z,22.90
2022-11-13T01:10:54.116Z,22.80
2022-11-13T01:11:03.899Z,22.70
2022-11-13T01:11:14.048Z,23.20
2022-11-13T01:11:24.073Z,23.60
2022-11-13T01:11:34.089Z,24.20
2022-11-13T01:11:44.287Z,23.90
2022-11-13T01:11:54.341Z,23.60
2022-11-13T01:12:04.317Z,23.80
2022-11-13T01:12:14.287Z,23.90
2022-11-13T01:12:24.299Z,24.10
2022-11-13T01:12:34.467Z,23.70
2022-11-13T01:12:44.486Z,23.00
2022-11-13T01:12:54.627Z,23.10
2022-11-13T01:13:04.627Z,23.30
2022-11-13T01:13:14.619Z,24.30
2022-11-13T01:13:24.743Z,24.30
2022-11-13T01:13:34.802Z,23.50
2022-11-13T01:13:44.937Z,22.90
2022-11-13T01:13:54.958Z,22.50
2022-11-13T01:14:04.947Z,23.20
2022-11-13T01:14:14.938Z,23.80
2022-11-13T01:14:24.998Z,23.70
2022-11-13T01:14:35.025Z,23.00
2022-11-13T01:14:45.183Z,22.50
2022-11-13T01:14:55.147Z,23.10
2022-11-13T01:15:05.169Z,23.30
2022-11-13T01:15:15.219Z,23.10
2022-11-13T01:15:25.262Z,22.90
2022-11-13T01:15:35.291Z,22.30
2022-11-13T01:15:45.428Z,22.20
2022-11-13T01:15:55.398Z,22.40
2022-11-13T01:16:05.381Z,23.00
2022-11-13T01:16:15.400Z,23.50
2022-11-13T01:16:25.371Z,23.30
2022-11-13T01:16:35.357Z,23.30
2022-11-13T01:16:45.488Z,23.30
2022-11-13T01:16:55.468Z,23.70
2022-11-13T01:17:05.532Z,23.50
2022-11-13T01:17:15.565Z,24.10
2022-11-13T01:17:25.529Z,24.10
2022-11-13T01:17:35.549Z,24.50
2022-11-13T01:17:45.600Z,24.30
2022-11-13T01:17:55.639Z,24.10
2022-11-13T01:18:05.668Z,23.50
2022-11-13T01:18:15.732Z,22.70
2022-11-13T01:18:26.003Z,23.20
2022-11-13T01:18:35.768Z,24.10
2022-11-13T01:18:45.796Z,24.30
2022-11-13T01:18:55.871Z,23.90
2022-11-13T01:19:05.901Z,22.90
2022-11-13T01:19:15.938Z,23.30
2022-11-13T01:19:25.977Z,22.80
2022-11-13T01:19:35.971Z,23.50
2022-11-13T01:19:45.967Z,23.30
2022-11-13T01:19:56.066Z,23.60
2022-11-13T01:20:06.078Z,22.90
2022-11-13T01:20:16.109Z,23.50
2022-11-13T01:20:26.240Z,24.40
2022-11-13T01:20:36.220Z,24.40
2022-11-13T01:20:46.260Z,23.80
2022-11-13T01:20:56.277Z,22.90
2022-11-13T01:21:06.482Z,23.70
2022-11-13T01:21:16.519Z,23.50
2022-11-13T01:21:26.588Z,23.20
2022-11-13T01:21:36.637Z,22.00
2022-11-13T01:21:46.768Z,22.30
2022-11-13T01:21:56.807Z,22.80
2022-11-13T01:22:06.811Z,23.50
2022-11-13T01:22:16.953Z,23.50
2022-11-13T01:22:26.828Z,23.60
2022-11-13T01:22:36.947Z,23.20
2022-11-13T01:22:47.079Z,23.00
2022-11-13T01:22:57.146Z,22.90
2022-11-13T01:23:07.143Z,22.50
2022-11-13T01:23:17.349Z,23.10
2022-11-13T01:23:27.399Z,22.70
2022-11-13T01:23:37.407Z,23.30
2022-11-13T01:23:47.406Z,22.50
2022-11-13T01:23:57.651Z,23.50
2022-11-13T01:24:07.648Z,23.20
2022-11-13T01:24:17.610Z,23.10
2022-11-13T01:24:27.630Z,23.70
2022-11-13T01:24:37.650Z,23.80
2022-11-13T01:24:47.824Z,23.50
2022-11-13T01:24:57.869Z,22.60
2022-11-13T01:25:07.848Z,22.90
2022-11-13T01:25:17.854Z,22.60
2022-11-13T01:25:27.856Z,22.90
2022-11-13T01:25:37.908Z,23.10
2022-11-13T01:25:47.939Z,23.50
2022-11-13T01:25:57.916Z,23.60
2022-11-13T01:26:07.950Z,23.40
2022-11-13T01:26:18.077Z,23.40
2022-11-13T01:26:28.216Z,22.60
2022-11-13T01:26:38.268Z,22.90
2022-11-13T01:26:48.307Z,22.50
2022-11-13T01:26:58.352Z,22.70
2022-11-13T01:27:08.414Z,22.00
2022-11-13T01:27:18.394Z,22.60
2022-11-13T01:27:28.527Z,22.90
2022-11-13T01:27:38.587Z,22.90
2022-11-13T01:27:48.608Z,22.70
2022-11-13T01:27:58.715Z,23.70
2022-11-13T01:28:08.706Z,23.30
2022-11-13T01:28:18.676Z,23.50
2022-11-13T01:28:29.144Z,22.30
2022-11-13T01:28:38.999Z,22.50
2022-11-13T01:28:49.065Z,22.40
2022-11-13T01:28:59.076Z,23.00
2022-11-13T01:29:09.047Z,23.40
2022-11-13T01:29:19.196Z,23.80
2022-11-13T01:29:29.176Z,23.60
2022-11-13T01:29:39.356Z,23.10
2022-11-13T01:29:49.388Z,22.70
2022-11-13T01:29:59.370Z,22.80
2022-11-13T01:30:09.487Z,22.90
2022-11-13T01:30:19.637Z,23.10
2022-11-13T01:30:29.628Z,22.50
2022-11-13T01:30:39.790Z,23.00
2022-11-13T01:30:49.834Z,22.80
2022-11-13T01:30:59.847Z,23.30
2022-11-13T01:31:09.975Z,23.50
2022-11-13T01:31:19.953Z,23.60
2022-11-13T01:31:30.021Z,23.30
2022-11-13T01:31:40.028Z,22.70
2022-11-13T01:31:50.028Z,23.10
2022-11-13T01:32:00.029Z,23.40
2022-11-13T01:32:10.194Z,23.50
2022-11-13T01:32:20.186Z,22.50
2022-11-13T01:32:30.166Z,22.80
2022-11-13T01:32:40.687Z,22.90
2022-11-13T01:32:50.286Z,23.70
2022-11-13T01:33:00.490Z,23.40
2022-11-13T01:33:10.526Z,22.80
2022-11-13T01:33:20.526Z,22.60
2022-11-13T01:33:30.710Z,22.40
2022-11-13T01:33:40.762Z,22.20
2022-11-13T01:33:50.777Z,21.50
2022-11-13T01:34:00.927Z,22.40
2022-11-13T01:34:10.929Z,23.10
2022-11-13T01:34:20.961Z,23.50
2022-11-13T01:34:31.018Z,23.80
2022-11-13T01:34:41.050Z,23.90
2022-11-13T01:34:51.212Z,24.00
2022-11-13T01:35:01.332Z,23.60
2022-11-13T01:35:11.349Z,22.70
2022-11-13T01:35:21.506Z,22.70
2022-11-13T01:35:31.460Z,21.80
2022-11-13T01:35:41.533Z,21.60
2022-11-13T01:35:51.539Z,21.90
2022-11-13T01:36:01.527Z,22.40
2022-11-13T01:36:11.519Z,22.90
2022-11-13T01:36:21.527Z,22.50
2022-11-13T01:36:31.536Z,22.70
2022-11-13T01:36:41.545Z,23.20
2022-11-13T01:36:51.586Z,23.30
2022-11-13T01:37:01.627Z,23.00
2022-11-13T01:37:11.651Z,22.50
2022-11-13T01:37:21.642Z,22.30
2022-11-13T01:37:31.577Z,21.90
2022-11-13T01:37:41.577Z,21.70
2022-11-13T01:37:51.586Z,22.30
2022-11-13T01:38:01.776Z,23.40
2022-11-13T01:38:11.816Z,23.20
2022-11-13T01:38:21.786Z,22.50
2022-11-13T01:38:36.015Z,21.30
2022-11-13T01:38:42.089Z,21.50
2022-11-13T01:38:52.187Z,21.40
2022-11-13T01:39:02.272Z,22.50
2022-11-13T01:39:12.419Z,22.80
2022-11-13T01:39:22.557Z,23.20
2022-11-13T01:39:32.644Z,22.60
2022-11-13T01:39:42.635Z,22.20
2022-11-13T01:39:52.638Z,22.20
2022-11-13T01:40:02.744Z,22.20
2022-11-13T01:40:12.845Z,22.50
2022-11-13T01:40:22.802Z,22.40
2022-11-13T01:40:32.886Z,22.80
2022-11-13T01:40:42.996Z,21.90
2022-11-13T01:40:53.167Z,21.70
2022-11-13T01:41:03.208Z,22.00
2022-11-13T01:41:13.327Z,22.60
2022-11-13T01:41:23.977Z,22.60
2022-11-13T01:41:33.495Z,22.80
2022-11-13T01:41:43.598Z,22.90
2022-11-13T01:41:53.726Z,23.50
2022-11-13T01:42:03.865Z,23.40
2022-11-13T01:42:13.877Z,23.30
2022-11-13T01:42:23.865Z,22.20
2022-11-13T01:42:33.949Z,21.90
2022-11-13T01:42:44.097Z,21.50
2022-11-13T01:42:54.245Z,21.80
2022-11-13T01:43:04.312Z,22.00
2022-11-13T01:43:14.450Z,22.00
2022-11-13T01:43:24.447Z,22.60
2022-11-13T01:43:34.405Z,22.70
2022-11-13T01:43:44.446Z,22.60
2022-11-13T01:43:54.428Z,22.00
2022-11-13T01:44:04.489Z,21.60
2022-11-13T01:44:14.479Z,21.50
2022-11-13T01:44:24.466Z,21.30
2022-11-13T01:44:34.455Z,20.90
2022-11-13T01:44:44.581Z,21.20
2022-11-13T01:44:54.809Z,21.40
2022-11-13T01:45:04.825Z,22.10
2022-11-13T01:45:14.835Z,21.40
2022-11-13T01:45:24.975Z,22.00
2022-11-13T01:45:34.963Z,21.60
2022-11-13T01:45:44.966Z,21.50
2022-11-13T01:45:55.106Z,21.60
2022-11-13T01:46:05.111Z,22.40
2022-11-13T01:46:15.257Z,22.80
2022-11-13T01:46:25.407Z,21.50
2022-11-13T01:46:35.406Z,21.30
2022-11-13T01:46:45.559Z,21.50
2022-11-13T01:46:55.709Z,22.20
2022-11-13T01:47:05.838Z,21.90
2022-11-13T01:47:15.852Z,21.90
2022-11-13T01:47:25.955Z,21.40
2022-11-13T01:47:36.074Z,21.20
2022-11-13T01:47:46.045Z,21.00
2022-11-13T01:47:56.054Z,21.60
2022-11-13T01:48:06.067Z,21.60
2022-11-13T01:48:16.062Z,21.60
2022-11-13T01:48:26.386Z,21.40
2022-11-13T01:48:36.187Z,21.60
2022-11-13T01:48:46.234Z,21.50
2022-11-13T01:48:56.378Z,21.90
2022-11-13T01:49:06.417Z,22.10
2022-11-13T01:49:16.416Z,22.40
2022-11-13T01:49:26.454Z,21.70
2022-11-13T01:49:36.485Z,21.70
2022-11-13T01:49:46.505Z,21.50
2022-11-13T01:49:56.536Z,22.60
2022-11-13T01:50:06.484Z,23.00
2022-11-13T01:50:16.482Z,22.60
2022-11-13T01:50:26.625Z,21.60
2022-11-13T01:50:36.777Z,21.70
2022-11-13T01:50:46.828Z,22.10
2022-11-13T01:50:56.864Z,22.10
2022-11-13T01:51:06.875Z,21.10
2022-11-13T01:51:16.873Z,21.30
2022-11-13T01:51:26.865Z,21.40
2022-11-13T01:51:37.005Z,22.40
2022-11-13T01:51:47.029Z,22.30
2022-11-13T01:51:57.018Z,22.40
2022-11-13T01:52:07.203Z,22.10
2022-11-13T01:52:17.195Z,21.70
2022-11-13T01:52:27.263Z,21.50
2022-11-13T01:52:37.224Z,21.70
2022-11-13T01:52:47.396Z,22.50
2022-11-13T01:52:57.364Z,22.70
2022-11-13T01:53:07.394Z,23.00
2022-11-13T01:53:17.426Z,21.70
2022-11-13T01:53:27.439Z,21.90
2022-11-13T01:53:37.495Z,21.40
2022-11-13T01:53:47.464Z,22.00
2022-11-13T01:53:57.422Z,21.60
2022-11-13T01:54:07.439Z,21.20
2022-11-13T01:54:17.472Z,21.00
2022-11-13T01:54:27.475Z,21.10
2022-11-13T01:54:37.473Z,21.70
2022-11-13T01:54:47.575Z,22.20
2022-11-13T01:54:57.746Z,22.40
2022-11-13T01:55:07.899Z,22.40
2022-11-13T01:55:17.869Z,21.60
2022-11-13T01:55:27.906Z,20.90
2022-11-13T01:55:37.885Z,20.90
2022-11-13T01:55:48.047Z,22.20
2022-11-13T01:55:58.066Z,22.40
2022-11-13T01:56:08.210Z,21.70
2022-11-13T01:56:18.313Z,21.10
2022-11-13T01:56:28.282Z,20.80
2022-11-13T01:56:38.313Z,21.30
2022-11-13T01:56:48.334Z,21.00
2022-11-13T01:56:58.336Z,21.30
2022-11-13T01:57:08.476Z,22.00
2022-11-13T01:57:18.466Z,22.60
2022-11-13T01:57:28.456Z,22.40
2022-11-13T01:57:38.456Z,21.90
2022-11-13T01:57:48.486Z,21.90
2022-11-13T01:57:58.578Z,22.10
2022-11-13T01:58:08.714Z,22.20
2022-11-13T01:58:18.753Z,21.70
2022-11-13T01:58:29.247Z,21.50
2022-11-13T01:58:38.848Z,21.10
2022-11-13T01:58:48.857Z,21.40
2022-11-13T01:58:58.914Z,21.50
2022-11-13T01:59:08.914Z,21.50
2022-11-13T01:59:18.892Z,21.50
2022-11-13T01:59:29.015Z,21.80
2022-11-13T01:59:38.993Z,21.60
2022-11-13T01:59:48.994Z,21.00
2022-11-13T01:59:59.143Z,20.70
2022-11-13T02:00:09.141Z,21.30
2022-11-13T02:00:19.204Z,22.20
2022-11-13T02:00:29.236Z,22.00
2022-11-13T02:00:39.313Z,21.90
2022-11-13T02:00:49.392Z,21.60
2022-11-13T02:00:59.434Z,21.70
2022-11-13T02:01:09.396Z,21.40
2022-11-13T02:01:19.412Z,20.90
2022-11-13T02:01:29.442Z,20.80
2022-11-13T02:01:39.519Z,20.20
2022-11-13T02:01:49.543Z,20.90
2022-11-13T02:01:59.710Z,21.10
2022-11-13T02:02:09.776Z,21.50
2022-11-13T02:02:19.818Z,21.00
2022-11-13T02:02:29.965Z,21.00
2022-11-13T02:02:39.934Z,21.90
2022-11-13T02:02:49.927Z,22.60
2022-11-13T02:02:59.914Z,22.00
2022-11-13T02:03:10.073Z,21.30
2022-11-13T02:03:20.084Z,20.70
2022-11-13T02:03:30.120Z,21.40
2022-11-13T02:03:40.298Z,22.20
2022-11-13T02:03:50.312Z,22.80
2022-11-13T02:04:00.293Z,23.20
2022-11-13T02:04:10.285Z,22.20
2022-11-13T02:04:20.311Z,22.40
2022-11-13T02:04:30.477Z,21.90
2022-11-13T02:04:40.446Z,21.90
2022-11-13T02:04:50.530Z,21.30
2022-11-13T02:05:00.672Z,21.10
2022-11-13T02:05:10.835Z,21.50
2022-11-13T02:05:20.879Z,21.20
2022-11-13T02:05:30.862Z,21.20
2022-11-13T02:05:40.954Z,21.40
2022-11-13T02:05:50.953Z,21.60
2022-11-13T02:06:00.968Z,22.00
2022-11-13T02:06:11.042Z,22.00
2022-11-13T02:06:21.034Z,22.60
2022-11-13T02:06:31.077Z,22.80
2022-11-13T02:06:41.146Z,22.80
2022-11-13T02:06:51.171Z,22.40
2022-11-13T02:07:01.244Z,21.90
2022-11-13T02:07:11.335Z,21.70
2022-11-13T02:07:21.399Z,21.80
2022-11-13T02:07:31.423Z,21.50
2022-11-13T02:07:41.461Z,21.50
2022-11-13T02:07:51.481Z,21.50
2022-11-13T02:08:01.698Z,22.30
2022-11-13T02:08:11.694Z,21.80
2022-11-13T02:08:21.852Z,22.30
2022-11-13T02:08:31.814Z,22.00
2022-11-13T02:08:41.822Z,22.90
2022-11-13T02:08:51.899Z,22.20
2022-11-13T02:09:01.924Z,22.20
2022-11-13T02:09:11.933Z,21.60
2022-11-13T02:09:21.902Z,21.50
2022-11-13T02:09:32.034Z,22.00
2022-11-13T02:09:42.052Z,22.00
2022-11-13T02:09:52.064Z,22.80
2022-11-13T02:10:02.065Z,21.90
2022-11-13T02:10:12.065Z,22.10